Time;durP1;ratioP1;P1;durP2;ratioP2;P2;SDS_P1;SDS_P2;PMS_P1;PMS_P2;Temp;Humidity;BMP_temperature;BMP_pressure;BME280_temperature;BME280_humidity;BME280_pressure;Samples;Min_cycle;Max_cycle;Signal;HPM_P1;HPM_P2
2023/11/23 00:00:09;;;;;;;6.97;3.63;;;9.60;99.90;;;8.95;100.00;102781.94;4167634;28;20036;-73
2023/11/23 00:02:10;;;;;;;4.75;3.30;;;9.60;99.90;;;8.97;100.00;102777.44;4143224;28;20038;-74
2023/11/23 00:04:11;;;;;;;7.00;4.10;;;9.60;99.90;;;8.99;100.00;102780.81;4162708;28;20076;-73
2023/11/23 00:06:12;;;;;;;5.82;3.85;;;9.60;99.90;;;9.01;100.00;102784.19;4168553;28;20451;-74
2023/11/23 00:08:13;;;;;;;7.15;3.83;;;9.60;99.90;;;9.02;100.00;102791.16;4168780;28;20093;-74
2023/11/23 00:10:14;;;;;;;5.70;4.07;;;9.70;99.90;;;9.04;100.00;102781.38;4168420;28;20516;-74
2023/11/23 00:12:15;;;;;;;5.50;3.75;;;9.70;99.90;;;9.06;100.00;102782.97;4151090;28;20025;-74
2023/11/23 00:14:17;;;;;;;7.68;3.85;;;9.70;99.90;;;9.05;100.00;102769.91;4168149;28;20508;-74
2023/11/23 00:16:17;;;;;;;6.15;3.95;;;9.70;99.90;;;9.06;100.00;102776.84;4151245;28;20402;-74
2023/11/23 00:18:18;;;;;;;8.68;3.67;;;9.70;99.90;;;9.10;100.00;102775.72;4151173;28;20064;-74
2023/11/23 00:20:20;;;;;;;5.70;3.92;;;9.70;99.90;;;9.10;100.00;102767.81;4168618;28;20022;-73
2023/11/23 00:22:21;;;;;;;5.25;3.33;;;9.70;99.90;;;9.13;100.00;102770.25;4168468;28;20032;-74
2023/11/23 00:24:22;;;;;;;11.00;4.18;;;9.70;99.90;;;9.12;100.00;102760.66;4161620;28;20021;-74
2023/11/23 00:26:23;;;;;;;5.65;3.67;;;9.80;99.90;;;9.12;100.00;102758.03;4184868;28;20499;-74
2023/11/23 00:28:24;;;;;;;6.95;3.50;;;9.80;99.90;;;9.18;100.00;102761.13;4167400;28;20029;-73
2023/11/23 00:30:25;;;;;;;6.47;3.58;;;9.80;99.90;;;9.21;100.00;102749.56;4185010;28;20024;-74
2023/11/23 00:32:27;;;;;;;5.78;3.30;;;9.90;99.90;;;9.23;100.00;102742.38;4150743;28;20061;-74
2023/11/23 00:34:27;;;;;;;7.68;2.88;;;9.90;99.90;;;9.26;100.00;102747.47;4167309;28;20035;-73
2023/11/23 00:36:30;;;;;;;4.22;2.75;;;9.90;99.90;;;9.28;100.00;102750.84;4167319;28;20033;-74
2023/11/23 00:38:30;;;;;;;5.10;3.42;;;9.90;99.90;;;9.31;100.00;102746.25;4184947;28;20112;-73
2023/11/23 00:40:31;;;;;;;4.35;2.80;;;9.90;99.90;;;9.32;100.00;102749.69;4184649;28;20040;-74
2023/11/23 00:42:32;;;;;;;8.30;3.28;;;9.90;99.90;;;9.34;100.00;102739.94;4184953;28;20029;-74
2023/11/23 00:44:33;;;;;;;5.40;3.10;;;10.00;99.90;;;9.37;100.00;102747.63;4155056;28;20084;-74
2023/11/23 00:46:37;;;;;;;5.03;2.95;;;10.00;99.90;;;9.38;100.00;102746.66;4168415;28;20420;-74
2023/11/23 00:48:38;;;;;;;3.85;2.80;;;10.00;99.90;;;9.37;100.00;102751.13;4168264;28;20469;-74
2023/11/23 00:50:39;;;;;;;4.72;2.50;;;10.00;99.90;;;9.44;100.00;102748.91;4150827;28;20029;-74
2023/11/23 00:52:40;;;;;;;3.70;2.53;;;10.10;99.90;;;9.45;100.00;102753.25;4167541;28;20025;-73
2023/11/23 00:54:42;;;;;;;5.97;3.03;;;10.10;99.90;;;9.49;100.00;102751.25;4180485;28;20070;-73
2023/11/23 00:56:43;;;;;;;3.63;2.28;;;10.10;99.90;;;9.48;100.00;102747.78;4184485;28;20029;-73
2023/11/23 00:58:44;;;;;;;3.25;2.00;;;10.10;99.90;;;9.53;100.00;102752.75;4150742;28;20077;-73
2023/11/23 01:00:45;;;;;;;5.88;3.00;;;10.10;99.90;;;9.53;100.00;102756.22;4184773;28;20033;-73
2023/11/23 01:02:46;;;;;;;3.30;2.08;;;10.20;99.90;;;9.57;100.00;102762.13;4183509;28;20082;-73
2023/11/23 01:04:48;;;;;;;5.70;2.55;;;10.20;99.90;;;9.57;100.00;102762.97;4169691;28;20032;-73
2023/11/23 01:06:48;;;;;;;2.70;2.03;;;10.20;99.90;;;9.60;100.00;102761.94;4184788;28;20021;-73
2023/11/23 01:08:49;;;;;;;3.83;1.95;;;10.20;99.90;;;9.57;100.00;102757.72;4158514;28;20457;-74
2023/11/23 01:10:51;;;;;;;3.83;2.33;;;10.20;99.90;;;9.58;100.00;102754.13;4155332;28;20520;-74
2023/11/23 01:12:54;;;;;;;6.82;2.80;;;10.20;99.90;;;9.59;100.00;102747.91;4151127;28;20022;-74
2023/11/23 01:14:55;;;;;;;3.97;2.53;;;10.20;99.90;;;9.61;100.00;102751.31;4153808;28;20029;-73
2023/11/23 01:16:56;;;;;;;5.30;2.35;;;10.20;99.90;;;9.60;100.00;102749.59;4171196;28;20026;-73
2023/11/23 01:18:56;;;;;;;2.80;2.10;;;10.20;99.90;;;9.61;100.00;102756.56;4153574;28;20044;-74
2023/11/23 01:20:57;;;;;;;4.30;2.40;;;10.30;99.90;;;9.62;100.00;102765.31;4170984;28;20032;-73
2023/11/23 01:22:58;;;;;;;5.82;2.25;;;10.30;99.90;;;9.62;100.00;102749.50;4153571;28;20037;-74
2023/11/23 01:24:59;;;;;;;4.88;2.15;;;10.20;99.90;;;9.61;100.00;102748.66;4154696;28;20026;-73
2023/11/23 01:27:00;;;;;;;3.30;2.05;;;10.30;99.90;;;9.62;100.00;102749.50;4169795;28;20086;-73
2023/11/23 01:29:00;;;;;;;5.90;2.00;;;10.30;99.90;;;9.64;100.00;102753.75;4153200;28;20022;-74
2023/11/23 01:31:02;;;;;;;4.15;2.60;;;10.30;99.90;;;9.62;100.00;102755.59;4187618;28;20029;-73
2023/11/23 01:33:03;;;;;;;5.13;2.30;;;10.30;99.90;;;9.63;100.00;102749.41;4187544;28;20025;-74
2023/11/23 01:35:06;;;;;;;3.50;2.10;;;10.30;99.90;;;9.63;100.00;102751.19;4171813;28;20037;-74
2023/11/23 01:37:06;;;;;;;6.30;3.10;;;10.30;99.90;;;9.61;100.00;102748.66;4153440;28;20029;-73
2023/11/23 01:39:07;;;;;;;5.20;2.92;;;10.30;99.90;;;9.66;100.00;102756.25;4153606;28;20026;-74
2023/11/23 01:41:08;;;;;;;5.15;3.22;;;10.30;99.90;;;9.66;100.00;102753.63;4170688;28;20087;-74
2023/11/23 01:43:09;;;;;;;4.35;2.22;;;10.30;99.90;;;9.66;100.00;102757.09;4170886;28;20056;-73
2023/11/23 01:45:11;;;;;;;5.40;2.60;;;10.30;99.90;;;9.68;100.00;102762.25;4181442;28;20052;-74
2023/11/23 01:47:13;;;;;;;4.13;2.78;;;10.30;99.90;;;9.66;100.00;102764.16;4187339;28;20029;-74
2023/11/23 01:49:16;;;;;;;6.13;3.10;;;10.30;99.90;;;9.61;100.00;102761.84;4169732;28;20041;-73
2023/11/23 01:51:17;;;;;;;4.60;2.85;;;10.30;99.90;;;9.65;100.00;102760.69;4168614;28;20443;-73
2023/11/23 01:53:18;;;;;;;6.38;2.60;;;10.30;99.90;;;9.67;100.00;102763.22;4170069;28;20026;-74
2023/11/23 01:55:19;;;;;;;6.22;2.63;;;10.30;99.90;;;9.67;100.00;102758.81;4169233;28;20060;-73
2023/11/23 01:57:20;;;;;;;4.63;2.40;;;10.30;99.90;;;9.69;100.00;102766.59;4187096;28;20029;-73
2023/11/23 01:59:22;;;;;;;7.60;2.80;;;10.30;99.90;;;9.70;100.00;102761.25;4169374;28;20033;-74
2023/11/23 02:01:23;;;;;;;4.53;2.70;;;10.30;99.90;;;9.71;100.00;102762.91;4169322;28;20455;-74
2023/11/23 02:03:23;;;;;;;4.20;2.13;;;10.30;99.90;;;9.69;100.00;102767.44;4185644;28;20025;-74
2023/11/23 02:05:25;;;;;;;5.07;2.30;;;10.30;99.90;;;9.73;100.00;102776.00;4169425;28;20037;-74
2023/11/23 02:07:26;;;;;;;5.15;2.72;;;10.30;99.90;;;9.74;100.00;102775.03;4152856;28;20105;-73
2023/11/23 02:09:28;;;;;;;4.50;2.92;;;10.40;99.90;;;9.72;100.00;102761.13;4152770;28;20044;-73
2023/11/23 02:11:29;;;;;;;4.20;3.10;;;10.30;99.90;;;9.68;100.00;102763.13;4169588;28;20013;-73
2023/11/23 02:13:33;;;;;;;4.22;2.78;;;10.40;99.90;;;9.70;100.00;102766.50;4152778;28;20033;-73
2023/11/23 02:15:35;;;;;;;3.72;2.88;;;10.30;99.90;;;9.69;100.00;102759.53;4164715;28;20185;-73
2023/11/23 02:17:35;;;;;;;5.00;2.30;;;10.30;99.90;;;9.72;100.00;102759.34;4170071;28;20100;-73
2023/11/23 02:19:36;;;;;;;5.57;2.67;;;10.40;99.90;;;9.72;100.00;102761.97;4170304;28;20051;-74
2023/11/23 02:21:37;;;;;;;7.85;2.95;;;10.40;99.90;;;9.75;100.00;102760.94;4152672;28;20087;-73
2023/11/23 02:23:38;;;;;;;4.47;2.13;;;10.40;99.90;;;9.74;100.00;102760.06;4167106;28;20018;-73
2023/11/23 02:25:39;;;;;;;5.85;2.72;;;10.40;99.90;;;9.74;100.00;102757.44;4148387;28;20030;-73
2023/11/23 02:27:40;;;;;;;4.88;2.42;;;10.30;99.90;;;9.73;100.00;102758.41;4170189;28;20113;-74
2023/11/23 02:29:40;;;;;;;6.05;2.75;;;10.40;99.90;;;9.71;100.00;102755.00;4170151;28;20032;-74
2023/11/23 02:31:42;;;;;;;4.63;2.88;;;10.40;99.90;;;9.71;100.00;102752.38;4152169;28;20022;-73
2023/11/23 02:33:42;;;;;;;5.20;2.17;;;10.40;99.90;;;9.73;100.00;102757.56;4166582;28;20026;-74
2023/11/23 02:35:44;;;;;;;3.30;2.40;;;10.40;99.90;;;9.77;100.00;102764.28;4152100;28;20026;-73
2023/11/23 02:37:44;;;;;;;6.13;2.85;;;10.40;99.90;;;9.76;100.00;102763.47;4169939;28;20440;-74
2023/11/23 02:39:46;;;;;;;3.58;2.50;;;10.40;99.90;;;9.78;100.00;102766.84;4152265;28;20060;-74
2023/11/23 02:41:47;;;;;;;3.70;2.25;;;10.40;99.90;;;9.78;100.00;102771.25;4169622;28;20079;-74
2023/11/23 02:43:48;;;;;;;4.70;2.05;;;10.40;99.90;;;9.77;100.00;102775.69;4171653;28;20028;-73
2023/11/23 02:45:49;;;;;;;4.03;2.45;;;10.40;99.90;;;9.79;100.00;102784.34;4168443;28;20041;-74
2023/11/23 02:47:50;;;;;;;4.30;2.90;;;10.40;99.90;;;9.80;100.00;102777.28;4186314;28;20025;-74
2023/11/23 02:49:51;;;;;;;4.45;2.72;;;10.40;99.90;;;9.81;100.00;102785.09;4168670;28;20543;-73
2023/11/23 02:51:52;;;;;;;3.38;2.58;;;10.40;99.90;;;9.79;100.00;102784.34;4183737;28;20423;-74
2023/11/23 02:53:52;;;;;;;3.63;2.33;;;10.40;99.90;;;9.80;100.00;102786.03;4181729;28;20510;-73
2023/11/23 02:55:54;;;;;;;2.63;1.98;;;10.50;99.90;;;9.81;100.00;102790.38;4169476;28;20083;-74
2023/11/23 02:57:55;;;;;;;2.80;2.20;;;10.40;99.90;;;9.83;100.00;102793.72;4151888;28;20463;-73
2023/11/23 02:59:56;;;;;;;4.03;2.30;;;10.50;99.90;;;9.81;100.00;102797.41;4151854;28;20030;-73
2023/11/23 03:01:57;;;;;;;3.38;2.35;;;10.50;99.90;;;9.84;100.00;102792.78;4168419;28;20037;-73
2023/11/23 03:03:58;;;;;;;4.18;2.40;;;10.50;99.90;;;9.85;100.00;102794.50;4164430;28;20054;-73
2023/11/23 03:06:00;;;;;;;5.20;2.67;;;10.50;99.90;;;9.83;100.00;102783.19;4147465;28;20054;-74
2023/11/23 03:08:01;;;;;;;6.05;2.40;;;10.50;99.90;;;9.88;100.00;102796.94;4151750;28;20060;-73
2023/11/23 03:10:02;;;;;;;5.47;2.50;;;10.50;99.90;;;9.89;100.00;102792.47;4168719;28;20029;-73
2023/11/23 03:12:04;;;;;;;3.92;2.40;;;10.50;99.90;;;9.85;100.00;102793.66;4177914;28;20028;-74
2023/11/23 03:14:05;;;;;;;4.25;2.25;;;10.50;99.90;;;9.86;100.00;102801.44;4162394;28;20030;-74
2023/11/23 03:16:06;;;;;;;3.38;2.30;;;10.50;99.90;;;9.87;100.00;102797.88;4151689;28;20468;-74
2023/11/23 03:18:07;;;;;;;4.82;2.67;;;10.50;99.90;;;9.87;100.00;102791.75;4151800;28;20025;-74
2023/11/23 03:20:10;;;;;;;2.65;2.03;;;10.50;99.90;;;9.87;100.00;102792.59;4169356;28;20031;-73
2023/11/23 03:22:11;;;;;;;3.83;2.30;;;10.50;99.90;;;9.88;100.00;102796.94;4168250;28;20030;-74
2023/11/23 03:24:11;;;;;;;3.08;2.38;;;10.50;99.90;;;9.88;100.00;102794.28;4149949;28;20044;-74
2023/11/23 03:26:12;;;;;;;4.53;2.28;;;10.50;99.90;;;9.87;100.00;102797.00;4169178;28;20018;-74
2023/11/23 03:28:13;;;;;;;4.85;2.33;;;10.50;99.90;;;9.88;100.00;102794.28;4151859;28;20461;-74
2023/11/23 03:30:15;;;;;;;2.88;2.33;;;10.50;99.90;;;9.85;100.00;102794.50;4151505;28;20026;-74
2023/11/23 03:32:16;;;;;;;4.10;1.75;;;10.50;99.90;;;9.89;100.00;102795.13;4151564;28;20109;-74
2023/11/23 03:34:17;;;;;;;2.50;1.60;;;10.50;99.90;;;9.88;100.00;102793.44;4153314;28;20028;-74
2023/11/23 03:36:18;;;;;;;2.80;1.75;;;10.50;99.90;;;9.86;100.00;102780.34;4185443;28;20028;-74
2023/11/23 03:38:19;;;;;;;5.28;2.05;;;10.50;99.90;;;9.87;100.00;102787.31;4167828;28;20028;-74
2023/11/23 03:40:20;;;;;;;3.47;2.10;;;10.50;99.90;;;9.88;100.00;102794.28;4185178;28;20029;-74
2023/11/23 03:42:21;;;;;;;3.88;2.10;;;10.50;99.90;;;9.83;100.00;102788.47;4185487;28;20032;-74
2023/11/23 03:44:22;;;;;;;4.03;2.35;;;10.50;99.90;;;9.80;100.00;102779.91;4160033;28;20054;-74
2023/11/23 03:46:23;;;;;;;6.28;2.47;;;10.40;99.90;;;9.75;100.00;102767.03;4168934;28;20025;-74
2023/11/23 03:48:23;;;;;;;2.92;1.90;;;10.40;99.90;;;9.79;100.00;102776.44;4168789;28;20037;-74
2023/11/23 03:50:24;;;;;;;5.88;2.58;;;10.40;99.90;;;9.78;100.00;102769.47;4168952;28;20087;-74
2023/11/23 03:52:25;;;;;;;2.88;2.10;;;10.40;99.90;;;9.78;100.00;102764.22;4168118;28;20103;-73
2023/11/23 03:54:26;;;;;;;5.90;2.25;;;10.40;99.90;;;9.75;100.00;102753.88;4150755;28;20022;-74
2023/11/23 03:56:27;;;;;;;5.47;2.15;;;10.40;99.90;;;9.77;100.00;102766.94;4150951;28;20026;-74
2023/11/23 03:58:28;;;;;;;3.20;2.03;;;10.40;99.90;;;9.76;100.00;102765.25;4169042;28;20503;-74
2023/11/23 04:00:28;;;;;;;3.10;2.17;;;10.40;99.90;;;9.78;100.00;102768.63;4168763;28;20026;-74
2023/11/23 04:02:29;;;;;;;3.55;2.72;;;10.40;99.90;;;9.77;100.00;102759.03;4168635;28;20032;-74
2023/11/23 04:04:31;;;;;;;4.68;2.85;;;10.40;99.90;;;9.77;100.00;102759.88;4168649;28;20029;-74
2023/11/23 04:06:31;;;;;;;7.38;4.85;;;10.40;99.90;;;9.78;100.00;102763.34;4151090;28;20525;-74
2023/11/23 04:08:32;;;;;;;11.30;5.18;;;10.40;99.90;;;9.78;100.00;102764.22;4168593;28;20021;-74
2023/11/23 04:10:33;;;;;;;11.13;5.28;;;10.40;99.90;;;9.77;100.00;102759.88;4151011;28;20018;-74
2023/11/23 04:12:34;;;;;;;10.15;5.05;;;10.40;99.90;;;9.77;100.00;102759.03;4168649;28;20082;-73
2023/11/23 04:14:35;;;;;;;14.23;6.55;;;10.40;99.90;;;9.78;100.00;102755.44;4168483;28;20033;-74
2023/11/23 04:16:36;;;;;;;15.18;8.35;;;10.40;99.90;;;9.77;100.00;102759.03;4151320;28;20087;-74
2023/11/23 04:18:41;;;;;;;17.08;9.50;;;10.40;99.90;;;9.78;100.00;102756.31;4168574;28;20489;-74
2023/11/23 04:20:42;;;;;;;12.50;6.22;;;10.40;99.90;;;9.75;100.00;102750.38;4168600;28;20064;-74
2023/11/23 04:22:43;;;;;;;8.80;4.88;;;10.40;99.90;;;9.72;100.00;102755.84;4151039;28;20041;-74
2023/11/23 04:24:44;;;;;;;6.40;4.00;;;10.40;99.90;;;9.68;100.00;102739.41;4150970;28;20069;-74
2023/11/23 04:26:45;;;;;;;6.05;3.63;;;10.30;99.90;;;9.68;100.00;102743.81;4150888;28;20033;-74
2023/11/23 04:28:47;;;;;;;7.00;3.58;;;10.30;99.90;;;9.64;100.00;102753.75;4168519;28;20025;-74
2023/11/23 04:30:48;;;;;;;4.43;3.30;;;10.30;99.90;;;9.65;100.00;102760.69;4151022;28;20026;-74
2023/11/23 04:32:48;;;;;;;7.07;3.72;;;10.30;99.90;;;9.64;100.00;102755.53;4167972;28;20672;-74
2023/11/23 04:34:49;;;;;;;6.85;3.65;;;10.30;99.90;;;9.61;100.00;102763.63;4150776;28;20022;-73
2023/11/23 04:36:50;;;;;;;10.02;4.15;;;10.30;99.90;;;9.59;100.00;102761.06;4150945;28;20096;-74
2023/11/23 04:38:51;;;;;;;10.25;5.65;;;10.30;99.90;;;9.58;100.00;102764.69;4168330;28;20026;-74
2023/11/23 04:40:52;;;;;;;8.48;5.28;;;10.20;99.90;;;9.58;100.00;102772.59;4168313;28;20029;-73
2023/11/23 04:42:52;;;;;;;9.20;5.10;;;10.20;99.90;;;9.59;100.00;102770.81;4168483;28;20034;-74
2023/11/23 04:44:53;;;;;;;8.48;4.53;;;10.20;99.90;;;9.58;100.00;102766.47;4168267;28;20060;-73
2023/11/23 04:46:54;;;;;;;8.82;4.43;;;10.20;99.90;;;9.57;100.00;102767.41;4168249;28;20033;-74
2023/11/23 04:48:55;;;;;;;11.20;6.25;;;10.20;99.90;;;9.57;100.00;102762.97;4170714;28;20025;-73
2023/11/23 04:50:56;;;;;;;10.88;6.32;;;10.20;99.90;;;9.55;100.00;102770.16;4154053;28;20022;-74
2023/11/23 04:52:57;;;;;;;9.57;6.97;;;10.20;99.90;;;9.51;100.00;102776.56;4151013;28;20523;-74
2023/11/23 04:54:58;;;;;;;12.40;7.25;;;10.20;99.90;;;9.49;100.00;102781.09;4148693;28;20037;-74
2023/11/23 04:56:59;;;;;;;10.75;7.38;;;10.20;99.90;;;9.48;100.00;102779.38;4188021;28;20036;-74
2023/11/23 04:59:02;;;;;;;11.27;6.40;;;10.10;99.90;;;9.48;100.00;102782.03;4170299;28;20033;-74
2023/11/23 05:01:03;;;;;;;8.75;5.88;;;10.10;99.90;;;9.45;100.00;102777.78;4170461;28;20026;-74
2023/11/23 05:03:04;;;;;;;7.28;4.60;;;10.10;99.90;;;9.42;100.00;102785.03;4187800;28;20037;-74
2023/11/23 05:05:05;;;;;;;8.10;5.28;;;10.10;99.90;;;9.41;100.00;102783.34;4187947;28;20044;-74
2023/11/23 05:07:06;;;;;;;9.10;6.28;;;10.10;99.90;;;9.37;100.00;102771.34;4170220;28;20029;-74
2023/11/23 05:09:07;;;;;;;9.13;6.40;;;10.10;99.90;;;9.40;100.00;102772.00;4143195;28;20033;-74
2023/11/23 05:11:08;;;;;;;7.53;5.47;;;10.10;99.90;;;9.39;100.00;102764.16;4170912;28;20546;-74
2023/11/23 05:13:10;;;;;;;10.43;6.80;;;10.10;99.90;;;9.34;100.00;102755.72;4153824;28;20535;-74
2023/11/23 05:15:11;;;;;;;7.85;5.15;;;10.10;99.90;;;9.33;100.00;102772.47;4153810;28;20068;-74
2023/11/23 05:17:12;;;;;;;9.88;5.97;;;10.00;99.90;;;9.31;100.00;102758.56;4171248;28;20107;-74
2023/11/23 05:19:13;;;;;;;15.15;9.25;;;10.00;99.90;;;9.33;100.00;102770.69;4171121;28;20056;-74
2023/11/23 05:21:14;;;;;;;9.77;7.43;;;10.00;99.90;;;9.32;100.00;102768.13;4153627;28;20042;-74
2023/11/23 05:23:14;;;;;;;10.20;6.05;;;10.00;99.90;;;9.30;100.00;102764.75;4171049;28;20056;-74
2023/11/23 05:25:15;;;;;;;7.25;5.85;;;10.00;99.90;;;9.29;100.00;102755.16;4153417;28;20386;-74
2023/11/23 05:27:16;;;;;;;9.32;5.60;;;10.00;99.90;;;9.27;100.00;102749.16;4170935;28;20037;-73
2023/11/23 05:29:17;;;;;;;9.30;6.15;;;10.00;99.90;;;9.23;100.00;102748.50;4153562;28;20029;-74
2023/11/23 05:31:18;;;;;;;8.00;6.45;;;10.00;99.90;;;9.24;100.00;102747.56;4153515;28;20022;-74
2023/11/23 05:33:19;;;;;;;9.13;6.65;;;9.90;99.90;;;9.22;100.00;102757.38;4153348;28;20034;-73
2023/11/23 05:35:20;;;;;;;9.15;5.97;;;9.90;99.90;;;9.24;100.00;102770.41;4170893;28;20377;-73
2023/11/23 05:37:21;;;;;;;8.60;5.50;;;9.90;99.90;;;9.27;100.00;102775.50;4171015;28;20037;-74
2023/11/23 05:39:21;;;;;;;7.10;5.25;;;9.90;99.90;;;9.22;100.00;102762.63;4170908;28;20477;-74
2023/11/23 05:41:22;;;;;;;9.43;5.80;;;9.90;99.90;;;9.25;100.00;102764.22;4153054;28;20030;-74
2023/11/23 05:43:24;;;;;;;7.35;5.82;;;9.90;99.90;;;9.24;100.00;102760.75;4153093;28;20030;-74
2023/11/23 05:45:24;;;;;;;8.95;6.30;;;9.90;99.90;;;9.24;100.00;102759.88;4170548;28;20071;-74
2023/11/23 05:47:25;;;;;;;7.65;5.65;;;9.90;99.90;;;9.24;100.00;102766.00;4170802;28;20026;-74
2023/11/23 05:49:27;;;;;;;8.27;5.88;;;9.90;99.90;;;9.24;100.00;102775.69;4170739;28;20028;-73
2023/11/23 05:51:28;;;;;;;7.78;6.45;;;9.90;99.90;;;9.25;100.00;102772.13;4152992;28;20018;-73
2023/11/23 05:53:28;;;;;;;11.45;6.72;;;9.90;99.90;;;9.20;100.00;102768.94;4184738;28;20024;-74
2023/11/23 05:55:29;;;;;;;14.48;6.97;;;9.90;99.90;;;9.20;100.00;102764.50;4185878;28;20511;-74
2023/11/23 05:57:30;;;;;;;8.35;6.18;;;9.90;99.90;;;9.24;100.00;102767.78;4169409;28;20029;-74
2023/11/23 05:59:31;;;;;;;9.52;6.97;;;9.90;99.90;;;9.23;100.00;102758.19;4185845;28;20025;-74
2023/11/23 06:01:32;;;;;;;8.07;6.68;;;9.90;99.90;;;9.22;100.00;102756.53;4186903;28;20028;-74
2023/11/23 06:03:33;;;;;;;8.70;7.00;;;9.90;99.90;;;9.20;100.00;102756.59;4187002;28;20025;-74
2023/11/23 06:05:35;;;;;;;8.75;6.72;;;9.90;99.90;;;9.20;100.00;102759.22;4187011;28;20032;-74
2023/11/23 06:07:36;;;;;;;7.03;5.90;;;9.90;99.90;;;9.21;100.00;102749.56;4187034;28;20099;-74
2023/11/23 06:09:38;;;;;;;10.05;6.20;;;9.90;99.90;;;9.20;100.00;102750.50;4154245;28;20435;-74
2023/11/23 06:11:39;;;;;;;10.73;6.75;;;9.90;99.90;;;9.22;100.00;102751.25;4152695;28;20017;-74
2023/11/23 06:13:45;;;;;;;8.82;7.10;;;9.90;99.90;;;9.23;100.00;102758.19;4136497;28;20391;-74
2023/11/23 06:15:46;;;;;;;9.98;6.70;;;9.90;99.90;;;9.23;100.00;102764.31;4153351;28;20036;-73
2023/11/23 06:17:47;;;;;;;10.27;7.22;;;9.90;99.90;;;9.24;100.00;102754.63;4163503;28;20029;-73
2023/11/23 06:19:48;;;;;;;9.82;6.78;;;9.90;99.90;;;9.23;100.00;102752.91;4186806;28;20021;-73
2023/11/23 06:21:49;;;;;;;10.77;7.45;;;9.90;99.90;;;9.20;100.00;102759.22;4186756;28;20025;-74
2023/11/23 06:23:50;;;;;;;9.82;6.35;;;9.90;99.90;;;9.20;100.00;102769.75;4169063;28;20021;-74
2023/11/23 06:25:51;;;;;;;12.13;7.35;;;9.90;99.90;;;9.22;100.00;102778.44;4186342;28;20025;-74
2023/11/23 06:27:52;;;;;;;10.45;6.93;;;9.90;99.90;;;9.22;100.00;102769.69;4169011;28;20485;-74
2023/11/23 06:29:53;;;;;;;11.40;7.43;;;9.90;99.90;;;9.22;100.00;102773.16;4168671;28;20036;-74
2023/11/23 06:31:56;;;;;;;12.10;7.32;;;9.90;99.90;;;9.19;100.00;102768.09;4186571;28;20021;-73
2023/11/23 06:33:58;;;;;;;12.52;7.28;;;9.90;99.90;;;9.23;100.00;102774.00;4186468;28;20029;-74
2023/11/23 06:35:59;;;;;;;10.13;7.65;;;9.90;99.90;;;9.24;100.00;102770.41;4186564;28;20036;-74
2023/11/23 06:38:00;;;;;;;10.65;7.45;;;9.90;99.90;;;9.22;100.00;102775.81;4186573;28;20025;-74
2023/11/23 06:40:01;;;;;;;10.05;7.22;;;9.90;99.90;;;9.23;100.00;102768.72;4186183;28;20074;-74
2023/11/23 06:42:02;;;;;;;7.55;6.32;;;9.90;99.90;;;9.24;100.00;102765.16;4168657;28;20546;-74
2023/11/23 06:44:03;;;;;;;13.02;7.75;;;9.90;99.90;;;9.27;100.00;102759.69;4168295;28;20059;-74
2023/11/23 06:46:04;;;;;;;10.25;7.28;;;9.90;99.90;;;9.25;100.00;102762.44;4186386;28;20036;-73
2023/11/23 06:48:05;;;;;;;8.85;6.50;;;9.90;99.90;;;9.29;100.00;102757.78;4186353;28;20496;-74
2023/11/23 06:50:08;;;;;;;9.07;7.43;;;10.00;99.90;;;9.27;100.00;102755.28;4186251;28;20047;-73
2023/11/23 06:52:08;;;;;;;10.35;7.63;;;10.00;99.90;;;9.28;100.00;102761.41;4184244;28;20100;-73
2023/11/23 06:54:10;;;;;;;13.00;9.20;;;10.00;99.90;;;9.28;100.00;102756.13;4182480;28;20400;-73
2023/11/23 06:56:15;;;;;;;9.90;7.43;;;10.00;99.90;;;9.30;100.00;102759.50;4169485;28;20025;-74
2023/11/23 06:58:16;;;;;;;12.10;7.65;;;10.00;99.90;;;9.30;100.00;102767.41;4152403;28;20029;-74
2023/11/23 07:00:25;;;;;;;13.23;8.82;;;10.00;99.90;;;9.29;100.00;102763.06;4169626;28;20399;-73
2023/11/23 07:02:28;;;;;;;12.13;8.02;;;9.90;99.90;;;9.27;100.00;102757.91;4136453;28;20435;-74
2023/11/23 07:04:29;;;;;;;10.80;8.15;;;10.00;99.90;;;9.28;100.00;102769.28;4169488;28;20100;-74
2023/11/23 07:06:30;;;;;;;9.77;7.50;;;10.00;99.90;;;9.30;100.00;102770.03;4163303;28;20022;-74
2023/11/23 07:08:35;;;;;;;12.32;9.07;;;10.00;99.90;;;9.26;100.00;102769.38;4169499;28;20032;-74
2023/11/23 07:10:36;;;;;;;10.73;8.32;;;10.00;99.90;;;9.26;100.00;102772.00;4149720;28;20050;-73
2023/11/23 07:12:40;;;;;;;12.82;8.27;;;9.90;99.90;;;9.29;100.00;102769.19;4173245;28;21205;-74
2023/11/23 07:14:44;;;;;;;12.25;8.55;;;10.00;99.90;;;9.25;100.00;102767.72;4169491;28;20036;-73
2023/11/23 07:16:46;;;;;;;12.73;8.73;;;10.00;99.90;;;9.27;100.00;102767.59;4152269;28;20029;-73
2023/11/23 07:18:47;;;;;;;10.10;7.97;;;10.00;99.90;;;9.30;100.00;102776.16;4152048;28;20073;-74
2023/11/23 07:20:48;;;;;;;13.05;8.18;;;10.00;99.90;;;9.30;100.00;102768.25;4151617;28;20030;-73
2023/11/23 07:22:49;;;;;;;10.73;7.70;;;10.00;99.90;;;9.34;100.00;102782.06;4151526;28;20048;-73
2023/11/23 07:24:50;;;;;;;13.52;8.20;;;10.00;99.90;;;9.32;100.00;102784.78;4169067;28;20030;-74
2023/11/23 07:26:51;;;;;;;9.38;7.72;;;10.00;99.90;;;9.35;100.00;102787.22;4151891;28;20084;-73
2023/11/23 07:28:53;;;;;;;9.00;6.95;;;10.00;99.90;;;9.37;100.00;102781.88;4151687;28;20028;-74
2023/11/23 07:30:57;;;;;;;11.55;7.90;;;10.00;99.90;;;9.37;100.00;102785.34;4169194;28;20025;-73
2023/11/23 07:32:58;;;;;;;12.35;7.60;;;10.00;99.90;;;9.36;100.00;102785.44;4162707;28;20034;-73
2023/11/23 07:35:00;;;;;;;10.18;8.00;;;10.10;99.90;;;9.41;100.00;102785.97;4144958;28;20033;-74
2023/11/23 07:37:02;;;;;;;8.98;7.05;;;10.10;99.90;;;9.41;100.00;102799.16;4151520;28;20032;-74
2023/11/23 07:39:03;;;;;;;10.93;7.75;;;10.10;99.90;;;9.38;100.00;102799.34;4155926;28;20025;-73
2023/11/23 07:41:06;;;;;;;10.63;7.88;;;10.10;99.90;;;9.41;100.00;102789.47;4151380;28;20061;-74
2023/11/23 07:43:10;;;;;;;11.13;7.30;;;10.10;99.90;;;9.40;100.00;102798.34;4161383;28;20014;-74
2023/11/23 07:45:11;;;;;;;;;;;10.10;99.90;;;9.42;100.00;102791.16;4149000;28;20046;-74
2023/11/23 07:47:14;;;;;;;7.85;5.93;;;10.10;99.90;;;9.40;100.00;102786.94;4152693;28;19916;-74
2023/11/23 07:49:14;;;;;;;9.38;6.53;;;10.10;99.90;;;9.42;100.00;102795.59;4151458;28;20524;-74
2023/11/23 07:51:15;;;;;;;8.80;6.22;;;10.10;99.90;;;9.45;100.00;102796.25;4151468;28;20038;-74
2023/11/23 07:53:17;;;;;;;11.30;7.75;;;10.10;99.90;;;9.50;100.00;102797.75;4143382;28;20026;-74
2023/11/23 07:55:17;;;;;;;8.48;6.53;;;10.10;99.90;;;9.49;100.00;102791.63;4168753;28;20029;-74
2023/11/23 07:57:22;;;;;;;10.27;7.15;;;10.20;99.90;;;9.52;100.00;102801.97;4167755;28;20053;-74
2023/11/23 07:59:22;;;;;;;;;;;10.20;99.90;;;9.53;100.00;102794.91;4169211;28;20036;-73
2023/11/23 08:01:23;;;;;;;10.63;6.63;;;10.20;99.90;;;9.54;100.00;102807.13;4158213;28;20316;-74
2023/11/23 08:03:24;;;;;;;10.88;7.00;;;10.20;99.90;;;9.58;100.00;102800.72;4149472;28;20044;-74
2023/11/23 08:05:25;;;;;;;9.23;6.90;;;10.20;99.90;;;9.60;100.00;102786.50;4168747;28;20033;-74
2023/11/23 08:07:26;;;;;;;9.57;6.93;;;10.30;99.90;;;9.64;100.00;102788.00;4164324;28;20036;-74
2023/11/23 08:09:27;;;;;;;10.25;6.95;;;10.30;99.90;;;9.68;100.00;102793.88;4151541;28;20030;-74
2023/11/23 08:11:28;;;;;;;9.93;6.45;;;10.30;99.90;;;9.73;100.00;102802.34;4167962;28;20099;-74
2023/11/23 08:13:29;;;;;;;8.55;6.05;;;10.30;99.90;;;9.75;100.00;102797.81;4157866;28;20037;-73
2023/11/23 08:15:30;;;;;;;9.50;6.70;;;10.40;99.90;;;9.78;100.00;102801.09;4150591;28;20029;-74
2023/11/23 08:17:31;;;;;;;12.32;7.13;;;10.40;99.90;;;9.81;100.00;102789.50;4134054;28;20029;-74
2023/11/23 08:19:32;;;;;;;10.73;6.93;;;10.40;99.90;;;9.85;100.00;102797.13;4138013;28;20626;-74
2023/11/23 08:21:34;;;;;;;12.68;7.75;;;10.50;99.90;;;9.86;100.00;102790.03;4151427;28;20104;-73
2023/11/23 08:23:35;;;;;;;8.85;6.28;;;10.50;99.90;;;9.88;100.00;102791.66;4159936;28;20061;-73